Terminal Aerodrome Forecast
Issued by NWS Topeka, KS

Home | Current Version | Previous Version | Text Only | Print | Product List | Glossary Off
Versions: 1 2 3 4 5 6 7 8 9 10 11 12 13 14 15 16 17 18 19 20

000
FTUS43 KTOP 251100
TAFTOP
TAF
KTOP 251137Z 2512/2612 24008KT P6SM -SHRA SCT025 BKN040
     FM251500 33012G20KT P6SM BKN025 OVC050
     FM260000 01009KT P6SM OVC015
     FM260800 04008KT P6SM OVC009=

USA.gov is the U.S. government's official web portal to all federal, state and local government web resources and services.